sensor_id;sensor_type;location;lat;lon;timestamp;P1;durP1;ratioP1;P2;durP2;ratioP2
3667;SDS011;24099;47.102;15.440;2023-10-09T00:02:45;4.93;;;0.60;;
3667;SDS011;24099;47.102;15.440;2023-10-09T00:05:13;0.32;;;0.32;;
3667;SDS011;24099;47.102;15.440;2023-10-09T00:07:48;0.40;;;0.40;;
3667;SDS011;24099;47.102;15.440;2023-10-09T00:10:18;1.17;;;0.57;;
3667;SDS011;24099;47.102;15.440;2023-10-09T00:12:46;2.67;;;0.63;;
3667;SDS011;24099;47.102;15.440;2023-10-09T00:15:15;1.15;;;0.60;;
3667;SDS011;24099;47.102;15.440;2023-10-09T00:17:43;1.92;;;0.50;;
3667;SDS011;24099;47.102;15.440;2023-10-09T00:20:12;1.63;;;0.70;;
3667;SDS011;24099;47.102;15.440;2023-10-09T00:22:55;0.95;;;0.38;;
3667;SDS011;24099;47.102;15.440;2023-10-09T00:25:23;0.60;;;0.50;;
3667;SDS011;24099;47.102;15.440;2023-10-09T00:27:55;0.85;;;0.60;;
3667;SDS011;24099;47.102;15.440;2023-10-09T00:30:26;7.25;;;0.70;;
3667;SDS011;24099;47.102;15.440;2023-10-09T00:32:55;0.73;;;0.50;;
3667;SDS011;24099;47.102;15.440;2023-10-09T00:35:29;0.77;;;0.57;;
3667;SDS011;24099;47.102;15.440;2023-10-09T00:38:04;1.02;;;0.65;;
3667;SDS011;24099;47.102;15.440;2023-10-09T00:40:40;1.48;;;0.63;;
3667;SDS011;24099;47.102;15.440;2023-10-09T00:43:12;0.68;;;0.60;;
3667;SDS011;24099;47.102;15.440;2023-10-09T00:45:41;0.40;;;0.40;;
3667;SDS011;24099;47.102;15.440;2023-10-09T00:48:10;1.55;;;1.00;;
3667;SDS011;24099;47.102;15.440;2023-10-09T00:50:41;0.52;;;0.50;;
3667;SDS011;24099;47.102;15.440;2023-10-09T00:53:17;0.85;;;0.68;;
3667;SDS011;24099;47.102;15.440;2023-10-09T00:55:56;4.25;;;0.70;;
3667;SDS011;24099;47.102;15.440;2023-10-09T00:58:28;2.13;;;0.68;;
3667;SDS011;24099;47.102;15.440;2023-10-09T01:01:03;1.33;;;0.70;;
3667;SDS011;24099;47.102;15.440;2023-10-09T01:03:34;2.55;;;1.00;;
3667;SDS011;24099;47.102;15.440;2023-10-09T01:06:05;0.40;;;0.40;;
3667;SDS011;24099;47.102;15.440;2023-10-09T01:08:42;1.70;;;0.80;;
3667;SDS011;24099;47.102;15.440;2023-10-09T01:11:20;1.27;;;0.57;;
3667;SDS011;24099;47.102;15.440;2023-10-09T01:13:49;1.10;;;0.60;;
3667;SDS011;24099;47.102;15.440;2023-10-09T01:16:23;0.95;;;0.70;;
3667;SDS011;24099;47.102;15.440;2023-10-09T01:18:51;2.70;;;0.60;;
3667;SDS011;24099;47.102;15.440;2023-10-09T01:21:19;5.07;;;0.68;;
3667;SDS011;24099;47.102;15.440;2023-10-09T01:23:50;0.68;;;0.68;;
3667;SDS011;24099;47.102;15.440;2023-10-09T01:26:34;3.60;;;0.70;;
3667;SDS011;24099;47.102;15.440;2023-10-09T01:29:09;2.33;;;0.70;;
3667;SDS011;24099;47.102;15.440;2023-10-09T01:31:39;0.90;;;0.70;;
3667;SDS011;24099;47.102;15.440;2023-10-09T01:34:16;2.83;;;0.80;;
3667;SDS011;24099;47.102;15.440;2023-10-09T01:36:44;3.40;;;0.50;;
3667;SDS011;24099;47.102;15.440;2023-10-09T01:39:15;2.15;;;0.88;;
3667;SDS011;24099;47.102;15.440;2023-10-09T01:41:53;2.03;;;0.50;;
3667;SDS011;24099;47.102;15.440;2023-10-09T01:44:27;6.55;;;0.90;;
3667;SDS011;24099;47.102;15.440;2023-10-09T01:47:00;2.67;;;0.85;;
3667;SDS011;24099;47.102;15.440;2023-10-09T01:49:32;1.92;;;0.60;;
3667;SDS011;24099;47.102;15.440;2023-10-09T01:52:02;0.98;;;0.60;;
3667;SDS011;24099;47.102;15.440;2023-10-09T01:54:36;1.02;;;0.88;;
3667;SDS011;24099;47.102;15.440;2023-10-09T01:57:04;2.28;;;0.65;;
3667;SDS011;24099;47.102;15.440;2023-10-09T01:59:38;0.65;;;0.65;;
3667;SDS011;24099;47.102;15.440;2023-10-09T02:02:09;7.25;;;0.95;;
3667;SDS011;24099;47.102;15.440;2023-10-09T02:04:56;1.85;;;0.80;;
3667;SDS011;24099;47.102;15.440;2023-10-09T02:07:32;6.78;;;1.05;;
3667;SDS011;24099;47.102;15.440;2023-10-09T02:10:09;4.72;;;0.95;;
3667;SDS011;24099;47.102;15.440;2023-10-09T02:12:47;2.20;;;0.85;;
3667;SDS011;24099;47.102;15.440;2023-10-09T02:15:17;1.77;;;0.88;;
3667;SDS011;24099;47.102;15.440;2023-10-09T02:18:05;2.97;;;1.00;;
3667;SDS011;24099;47.102;15.440;2023-10-09T02:20:42;0.70;;;0.70;;
3667;SDS011;24099;47.102;15.440;2023-10-09T02:23:11;2.80;;;1.02;;
3667;SDS011;24099;47.102;15.440;2023-10-09T02:25:41;1.60;;;0.98;;
3667;SDS011;24099;47.102;15.440;2023-10-09T02:28:10;1.55;;;1.02;;
3667;SDS011;24099;47.102;15.440;2023-10-09T02:30:43;2.40;;;1.15;;
3667;SDS011;24099;47.102;15.440;2023-10-09T02:33:13;4.68;;;0.93;;
3667;SDS011;24099;47.102;15.440;2023-10-09T02:35:44;3.72;;;1.38;;
3667;SDS011;24099;47.102;15.440;2023-10-09T02:38:16;5.50;;;1.10;;
3667;SDS011;24099;47.102;15.440;2023-10-09T02:40:49;1.17;;;0.88;;
3667;SDS011;24099;47.102;15.440;2023-10-09T02:43:34;3.27;;;1.10;;
3667;SDS011;24099;47.102;15.440;2023-10-09T02:46:10;8.07;;;1.17;;
3667;SDS011;24099;47.102;15.440;2023-10-09T02:48:42;1.65;;;0.93;;
3667;SDS011;24099;47.102;15.440;2023-10-09T02:51:16;1.38;;;0.95;;
3667;SDS011;24099;47.102;15.440;2023-10-09T02:53:58;1.92;;;1.08;;
3667;SDS011;24099;47.102;15.440;2023-10-09T02:56:35;3.08;;;0.75;;
3667;SDS011;24099;47.102;15.440;2023-10-09T02:59:07;2.25;;;0.90;;
3667;SDS011;24099;47.102;15.440;2023-10-09T03:01:36;1.88;;;0.90;;
3667;SDS011;24099;47.102;15.440;2023-10-09T03:04:03;5.72;;;1.20;;
3667;SDS011;24099;47.102;15.440;2023-10-09T03:06:31;9.70;;;0.90;;
3667;SDS011;24099;47.102;15.440;2023-10-09T03:09:00;5.13;;;2.13;;
3667;SDS011;24099;47.102;15.440;2023-10-09T03:11:43;3.50;;;0.75;;
3667;SDS011;24099;47.102;15.440;2023-10-09T03:14:11;3.88;;;0.90;;
3667;SDS011;24099;47.102;15.440;2023-10-09T03:16:39;0.70;;;0.70;;
3667;SDS011;24099;47.102;15.440;2023-10-09T03:19:06;1.40;;;0.90;;
3667;SDS011;24099;47.102;15.440;2023-10-09T03:21:36;2.20;;;0.98;;
3667;SDS011;24099;47.102;15.440;2023-10-09T03:24:04;1.33;;;0.90;;
3667;SDS011;24099;47.102;15.440;2023-10-09T03:26:33;1.30;;;0.90;;
3667;SDS011;24099;47.102;15.440;2023-10-09T03:29:02;3.35;;;0.80;;
3667;SDS011;24099;47.102;15.440;2023-10-09T03:31:31;2.03;;;0.68;;
3667;SDS011;24099;47.102;15.440;2023-10-09T03:33:59;0.93;;;0.77;;
3667;SDS011;24099;47.102;15.440;2023-10-09T03:36:27;1.50;;;0.75;;
3667;SDS011;24099;47.102;15.440;2023-10-09T03:38:56;1.58;;;0.88;;
3667;SDS011;24099;47.102;15.440;2023-10-09T03:41:25;3.40;;;1.00;;
3667;SDS011;24099;47.102;15.440;2023-10-09T03:43:54;1.95;;;0.70;;
3667;SDS011;24099;47.102;15.440;2023-10-09T03:46:23;2.97;;;0.90;;
3667;SDS011;24099;47.102;15.440;2023-10-09T03:48:58;0.77;;;0.70;;
3667;SDS011;24099;47.102;15.440;2023-10-09T03:51:28;2.08;;;0.73;;
3667;SDS011;24099;47.102;15.440;2023-10-09T03:53:57;2.15;;;0.60;;
3667;SDS011;24099;47.102;15.440;2023-10-09T03:56:28;0.68;;;0.68;;
3667;SDS011;24099;47.102;15.440;2023-10-09T03:58:57;1.02;;;0.70;;
3667;SDS011;24099;47.102;15.440;2023-10-09T04:01:28;3.83;;;0.90;;
3667;SDS011;24099;47.102;15.440;2023-10-09T04:03:57;2.20;;;0.80;;
3667;SDS011;24099;47.102;15.440;2023-10-09T04:06:26;2.05;;;0.70;;
3667;SDS011;24099;47.102;15.440;2023-10-09T04:08:55;7.40;;;0.80;;
3667;SDS011;24099;47.102;15.440;2023-10-09T04:11:24;0.73;;;0.60;;
3667;SDS011;24099;47.102;15.440;2023-10-09T04:13:51;0.77;;;0.73;;
3667;SDS011;24099;47.102;15.440;2023-10-09T04:16:19;1.88;;;0.82;;
3667;SDS011;24099;47.102;15.440;2023-10-09T04:19:00;1.17;;;0.73;;
3667;SDS011;24099;47.102;15.440;2023-10-09T04:21:37;1.10;;;0.98;;
3667;SDS011;24099;47.102;15.440;2023-10-09T04:24:03;3.30;;;1.23;;
3667;SDS011;24099;47.102;15.440;2023-10-09T04:26:49;0.50;;;0.50;;
3667;SDS011;24099;47.102;15.440;2023-10-09T04:29:21;3.33;;;0.88;;
3667;SDS011;24099;47.102;15.440;2023-10-09T04:31:52;1.42;;;0.80;;
3667;SDS011;24099;47.102;15.440;2023-10-09T04:34:22;0.60;;;0.60;;
3667;SDS011;24099;47.102;15.440;2023-10-09T04:36:55;0.85;;;0.70;;
3667;SDS011;24099;47.102;15.440;2023-10-09T04:39:26;1.67;;;0.63;;
3667;SDS011;24099;47.102;15.440;2023-10-09T04:42:02;0.43;;;0.43;;
3667;SDS011;24099;47.102;15.440;2023-10-09T04:44:52;0.60;;;0.60;;
3667;SDS011;24099;47.102;15.440;2023-10-09T04:47:37;0.85;;;0.85;;
3667;SDS011;24099;47.102;15.440;2023-10-09T04:50:15;2.97;;;0.68;;
3667;SDS011;24099;47.102;15.440;2023-10-09T04:52:57;2.35;;;0.70;;
3667;SDS011;24099;47.102;15.440;2023-10-09T04:55:44;4.80;;;0.65;;
3667;SDS011;24099;47.102;15.440;2023-10-09T04:58:19;0.95;;;0.73;;
3667;SDS011;24099;47.102;15.440;2023-10-09T05:00:51;1.05;;;0.82;;
3667;SDS011;24099;47.102;15.440;2023-10-09T05:03:38;1.08;;;1.02;;
3667;SDS011;24099;47.102;15.440;2023-10-09T05:06:23;0.75;;;0.75;;
3667;SDS011;24099;47.102;15.440;2023-10-09T05:09:20;2.15;;;0.65;;
3667;SDS011;24099;47.102;15.440;2023-10-09T05:11:48;0.85;;;0.70;;
3667;SDS011;24099;47.102;15.440;2023-10-09T05:14:40;4.05;;;0.95;;
3667;SDS011;24099;47.102;15.440;2023-10-09T05:17:27;1.67;;;0.90;;
3667;SDS011;24099;47.102;15.440;2023-10-09T05:19:54;2.92;;;0.60;;
3667;SDS011;24099;47.102;15.440;2023-10-09T05:22:42;1.40;;;0.90;;
3667;SDS011;24099;47.102;15.440;2023-10-09T05:25:22;1.02;;;0.60;;
3667;SDS011;24099;47.102;15.440;2023-10-09T05:28:17;0.52;;;0.50;;
3667;SDS011;24099;47.102;15.440;2023-10-09T05:30:56;3.28;;;0.70;;
3667;SDS011;24099;47.102;15.440;2023-10-09T05:33:32;2.13;;;0.88;;
3667;SDS011;24099;47.102;15.440;2023-10-09T05:36:00;2.42;;;0.82;;
3667;SDS011;24099;47.102;15.440;2023-10-09T05:39:02;0.60;;;0.60;;
3667;SDS011;24099;47.102;15.440;2023-10-09T05:41:47;1.33;;;0.70;;
3667;SDS011;24099;47.102;15.440;2023-10-09T05:44:24;0.90;;;0.70;;
3667;SDS011;24099;47.102;15.440;2023-10-09T05:47:09;1.15;;;0.90;;
3667;SDS011;24099;47.102;15.440;2023-10-09T05:49:56;2.72;;;0.93;;
3667;SDS011;24099;47.102;15.440;2023-10-09T05:52:48;1.17;;;0.88;;
3667;SDS011;24099;47.102;15.440;2023-10-09T05:55:33;2.13;;;0.90;;
3667;SDS011;24099;47.102;15.440;2023-10-09T05:58:26;16.55;;;1.35;;
3667;SDS011;24099;47.102;15.440;2023-10-09T06:01:28;2.38;;;0.90;;
3667;SDS011;24099;47.102;15.440;2023-10-09T06:04:28;0.90;;;0.80;;
3667;SDS011;24099;47.102;15.440;2023-10-09T06:09:48;2.60;;;0.80;;
3667;SDS011;24099;47.102;15.440;2023-10-09T06:12:16;0.65;;;0.63;;
3667;SDS011;24099;47.102;15.440;2023-10-09T06:15:01;2.22;;;0.98;;
3667;SDS011;24099;47.102;15.440;2023-10-09T06:17:42;0.80;;;0.80;;
3667;SDS011;24099;47.102;15.440;2023-10-09T06:20:15;1.65;;;0.90;;
3667;SDS011;24099;47.102;15.440;2023-10-09T06:23:24;1.40;;;0.73;;
3667;SDS011;24099;47.102;15.440;2023-10-09T06:26:12;0.85;;;0.77;;
3667;SDS011;24099;47.102;15.440;2023-10-09T06:28:51;3.53;;;1.00;;
3667;SDS011;24099;47.102;15.440;2023-10-09T06:31:39;1.15;;;0.80;;
3667;SDS011;24099;47.102;15.440;2023-10-09T06:34:41;1.73;;;1.00;;
3667;SDS011;24099;47.102;15.440;2023-10-09T06:37:10;4.78;;;0.73;;
3667;SDS011;24099;47.102;15.440;2023-10-09T06:40:00;0.88;;;0.80;;
3667;SDS011;24099;47.102;15.440;2023-10-09T06:43:04;0.90;;;0.90;;
3667;SDS011;24099;47.102;15.440;2023-10-09T06:45:36;1.20;;;0.90;;
3667;SDS011;24099;47.102;15.440;2023-10-09T06:48:10;1.13;;;0.80;;
3667;SDS011;24099;47.102;15.440;2023-10-09T06:50:51;2.88;;;0.90;;
3667;SDS011;24099;47.102;15.440;2023-10-09T06:53:29;0.73;;;0.65;;
3667;SDS011;24099;47.102;15.440;2023-10-09T06:56:10;1.40;;;0.60;;
3667;SDS011;24099;47.102;15.440;2023-10-09T06:58:48;4.22;;;1.10;;
3667;SDS011;24099;47.102;15.440;2023-10-09T07:01:16;0.60;;;0.60;;
3667;SDS011;24099;47.102;15.440;2023-10-09T07:03:54;2.22;;;0.90;;
3667;SDS011;24099;47.102;15.440;2023-10-09T07:06:25;4.53;;;0.63;;
3667;SDS011;24099;47.102;15.440;2023-10-09T07:09:06;1.38;;;0.80;;
3667;SDS011;24099;47.102;15.440;2023-10-09T07:11:45;3.78;;;0.90;;
3667;SDS011;24099;47.102;15.440;2023-10-09T07:14:29;1.83;;;0.90;;
3667;SDS011;24099;47.102;15.440;2023-10-09T07:17:14;2.35;;;1.10;;
3667;SDS011;24099;47.102;15.440;2023-10-09T07:19:58;3.75;;;0.98;;
3667;SDS011;24099;47.102;15.440;2023-10-09T07:22:42;8.35;;;1.45;;
3667;SDS011;24099;47.102;15.440;2023-10-09T07:25:21;2.35;;;1.20;;
3667;SDS011;24099;47.102;15.440;2023-10-09T07:28:08;2.67;;;1.30;;
3667;SDS011;24099;47.102;15.440;2023-10-09T07:30:52;3.35;;;1.52;;
3667;SDS011;24099;47.102;15.440;2023-10-09T07:33:24;4.80;;;1.85;;
3667;SDS011;24099;47.102;15.440;2023-10-09T07:36:17;5.65;;;1.67;;
3667;SDS011;24099;47.102;15.440;2023-10-09T07:38:59;2.63;;;1.58;;
3667;SDS011;24099;47.102;15.440;2023-10-09T07:41:30;4.60;;;1.98;;
3667;SDS011;24099;47.102;15.440;2023-10-09T07:44:05;3.30;;;1.52;;
3667;SDS011;24099;47.102;15.440;2023-10-09T07:46:50;3.70;;;1.40;;
3667;SDS011;24099;47.102;15.440;2023-10-09T07:49:40;2.30;;;1.60;;
3667;SDS011;24099;47.102;15.440;2023-10-09T07:52:07;9.45;;;1.67;;
3667;SDS011;24099;47.102;15.440;2023-10-09T07:54:35;7.70;;;1.92;;
3667;SDS011;24099;47.102;15.440;2023-10-09T07:57:02;5.65;;;1.70;;
3667;SDS011;24099;47.102;15.440;2023-10-09T07:59:41;3.78;;;1.90;;
3667;SDS011;24099;47.102;15.440;2023-10-09T08:02:20;2.30;;;1.38;;
3667;SDS011;24099;47.102;15.440;2023-10-09T08:04:58;11.88;;;2.72;;
3667;SDS011;24099;47.102;15.440;2023-10-09T08:07:29;7.68;;;1.52;;
3667;SDS011;24099;47.102;15.440;2023-10-09T08:10:03;4.25;;;1.63;;
3667;SDS011;24099;47.102;15.440;2023-10-09T08:12:48;2.00;;;1.45;;
3667;SDS011;24099;47.102;15.440;2023-10-09T08:15:25;3.08;;;1.25;;
3667;SDS011;24099;47.102;15.440;2023-10-09T08:17:59;2.90;;;1.13;;
3667;SDS011;24099;47.102;15.440;2023-10-09T08:20:30;3.28;;;1.50;;
3667;SDS011;24099;47.102;15.440;2023-10-09T08:23:16;1.63;;;1.00;;
3667;SDS011;24099;47.102;15.440;2023-10-09T08:25:58;1.65;;;0.98;;
3667;SDS011;24099;47.102;15.440;2023-10-09T08:28:35;1.75;;;0.98;;
3667;SDS011;24099;47.102;15.440;2023-10-09T08:31:07;3.67;;;1.10;;
3667;SDS011;24099;47.102;15.440;2023-10-09T08:33:44;1.85;;;1.17;;
3667;SDS011;24099;47.102;15.440;2023-10-09T08:36:12;1.25;;;1.00;;
3667;SDS011;24099;47.102;15.440;2023-10-09T08:38:48;4.88;;;1.17;;
3667;SDS011;24099;47.102;15.440;2023-10-09T08:41:15;1.65;;;1.10;;
3667;SDS011;24099;47.102;15.440;2023-10-09T08:43:49;2.28;;;1.00;;
3667;SDS011;24099;47.102;15.440;2023-10-09T08:48:48;2.50;;;1.10;;
3667;SDS011;24099;47.102;15.440;2023-10-09T08:51:17;2.47;;;1.10;;
3667;SDS011;24099;47.102;15.440;2023-10-09T08:53:46;1.48;;;1.08;;
3667;SDS011;24099;47.102;15.440;2023-10-09T08:56:13;3.38;;;1.30;;
3667;SDS011;24099;47.102;15.440;2023-10-09T08:58:47;2.00;;;1.10;;
3667;SDS011;24099;47.102;15.440;2023-10-09T09:01:16;2.70;;;1.05;;
3667;SDS011;24099;47.102;15.440;2023-10-09T09:03:47;2.45;;;0.70;;
3667;SDS011;24099;47.102;15.440;2023-10-09T09:06:15;2.03;;;1.00;;
3667;SDS011;24099;47.102;15.440;2023-10-09T09:08:46;1.27;;;1.00;;
3667;SDS011;24099;47.102;15.440;2023-10-09T09:11:14;2.30;;;1.27;;
3667;SDS011;24099;47.102;15.440;2023-10-09T09:13:43;3.25;;;0.98;;
3667;SDS011;24099;47.102;15.440;2023-10-09T09:16:18;3.50;;;1.30;;
3667;SDS011;24099;47.102;15.440;2023-10-09T09:18:52;5.50;;;1.17;;
3667;SDS011;24099;47.102;15.440;2023-10-09T09:21:28;1.80;;;0.90;;
3667;SDS011;24099;47.102;15.440;2023-10-09T09:24:04;6.13;;;0.90;;
3667;SDS011;24099;47.102;15.440;2023-10-09T09:26:41;2.67;;;1.00;;
3667;SDS011;24099;47.102;15.440;2023-10-09T09:29:12;1.30;;;0.70;;
3667;SDS011;24099;47.102;15.440;2023-10-09T09:31:40;1.15;;;0.90;;
3667;SDS011;24099;47.102;15.440;2023-10-09T09:34:18;2.03;;;0.93;;
3667;SDS011;24099;47.102;15.440;2023-10-09T09:36:51;1.85;;;1.00;;
3667;SDS011;24099;47.102;15.440;2023-10-09T09:39:24;9.00;;;1.20;;
3667;SDS011;24099;47.102;15.440;2023-10-09T09:41:55;7.60;;;1.15;;
3667;SDS011;24099;47.102;15.440;2023-10-09T09:44:32;5.18;;;0.90;;
3667;SDS011;24099;47.102;15.440;2023-10-09T09:47:09;3.22;;;1.05;;
3667;SDS011;24099;47.102;15.440;2023-10-09T09:49:38;3.70;;;1.40;;
3667;SDS011;24099;47.102;15.440;2023-10-09T09:52:08;1.50;;;1.13;;
3667;SDS011;24099;47.102;15.440;2023-10-09T09:54:38;1.95;;;1.15;;
3667;SDS011;24099;47.102;15.440;2023-10-09T09:57:06;2.90;;;1.00;;
3667;SDS011;24099;47.102;15.440;2023-10-09T09:59:40;1.27;;;1.00;;
3667;SDS011;24099;47.102;15.440;2023-10-09T10:02:18;2.40;;;1.00;;
3667;SDS011;24099;47.102;15.440;2023-10-09T10:04:47;5.53;;;1.10;;
3667;SDS011;24099;47.102;15.440;2023-10-09T10:07:16;2.45;;;1.48;;
3667;SDS011;24099;47.102;15.440;2023-10-09T10:09:47;1.35;;;1.00;;
3667;SDS011;24099;47.102;15.440;2023-10-09T10:15:01;1.58;;;1.02;;
3667;SDS011;24099;47.102;15.440;2023-10-09T10:17:52;5.45;;;1.60;;
3667;SDS011;24099;47.102;15.440;2023-10-09T10:20:38;4.10;;;1.33;;
3667;SDS011;24099;47.102;15.440;2023-10-09T10:23:25;4.60;;;1.55;;
3667;SDS011;24099;47.102;15.440;2023-10-09T10:26:17;2.55;;;1.17;;
3667;SDS011;24099;47.102;15.440;2023-10-09T10:28:58;4.13;;;1.60;;
3667;SDS011;24099;47.102;15.440;2023-10-09T10:31:56;12.88;;;1.75;;
3667;SDS011;24099;47.102;15.440;2023-10-09T10:34:26;3.53;;;1.50;;
3667;SDS011;24099;47.102;15.440;2023-10-09T10:36:53;4.32;;;1.50;;
3667;SDS011;24099;47.102;15.440;2023-10-09T10:39:25;7.95;;;1.50;;
3667;SDS011;24099;47.102;15.440;2023-10-09T10:42:08;2.75;;;1.38;;
3667;SDS011;24099;47.102;15.440;2023-10-09T10:44:40;3.65;;;1.70;;
3667;SDS011;24099;47.102;15.440;2023-10-09T10:47:11;3.33;;;1.30;;
3667;SDS011;24099;47.102;15.440;2023-10-09T10:49:48;7.22;;;1.52;;
3667;SDS011;24099;47.102;15.440;2023-10-09T10:52:23;2.13;;;1.20;;
3667;SDS011;24099;47.102;15.440;2023-10-09T10:55:08;5.72;;;1.70;;
3667;SDS011;24099;47.102;15.440;2023-10-09T10:58:16;2.80;;;1.67;;
3667;SDS011;24099;47.102;15.440;2023-10-09T11:00:52;6.63;;;1.70;;
3667;SDS011;24099;47.102;15.440;2023-10-09T11:03:37;4.03;;;1.30;;
3667;SDS011;24099;47.102;15.440;2023-10-09T11:06:26;3.25;;;1.35;;
3667;SDS011;24099;47.102;15.440;2023-10-09T11:09:02;2.60;;;1.48;;
3667;SDS011;24099;47.102;15.440;2023-10-09T11:11:46;4.00;;;1.70;;
3667;SDS011;24099;47.102;15.440;2023-10-09T11:14:16;4.05;;;1.23;;
3667;SDS011;24099;47.102;15.440;2023-10-09T11:16:48;1.30;;;0.90;;
3667;SDS011;24099;47.102;15.440;2023-10-09T11:19:19;2.78;;;1.20;;
3667;SDS011;24099;47.102;15.440;2023-10-09T11:21:54;5.47;;;1.15;;
3667;SDS011;24099;47.102;15.440;2023-10-09T11:24:45;1.67;;;1.13;;
3667;SDS011;24099;47.102;15.440;2023-10-09T11:27:12;7.57;;;1.17;;
3667;SDS011;24099;47.102;15.440;2023-10-09T11:29:51;8.55;;;1.20;;
3667;SDS011;24099;47.102;15.440;2023-10-09T11:32:20;5.95;;;1.20;;
3667;SDS011;24099;47.102;15.440;2023-10-09T11:34:49;3.33;;;1.15;;
3667;SDS011;24099;47.102;15.440;2023-10-09T11:37:19;3.55;;;1.20;;
3667;SDS011;24099;47.102;15.440;2023-10-09T11:40:04;6.60;;;1.38;;
3667;SDS011;24099;47.102;15.440;2023-10-09T11:42:48;4.93;;;1.00;;
3667;SDS011;24099;47.102;15.440;2023-10-09T11:45:24;3.90;;;1.40;;
3667;SDS011;24099;47.102;15.440;2023-10-09T11:47:54;4.35;;;1.00;;
3667;SDS011;24099;47.102;15.440;2023-10-09T11:50:40;3.45;;;1.35;;
3667;SDS011;24099;47.102;15.440;2023-10-09T11:53:16;7.25;;;1.20;;
3667;SDS011;24099;47.102;15.440;2023-10-09T11:55:45;1.02;;;0.80;;
3667;SDS011;24099;47.102;15.440;2023-10-09T11:58:14;2.10;;;1.35;;
3667;SDS011;24099;47.102;15.440;2023-10-09T12:00:49;2.88;;;1.08;;
3667;SDS011;24099;47.102;15.440;2023-10-09T12:03:22;13.00;;;1.30;;
3667;SDS011;24099;47.102;15.440;2023-10-09T12:05:54;2.85;;;0.90;;
3667;SDS011;24099;47.102;15.440;2023-10-09T12:08:21;7.45;;;1.60;;
3667;SDS011;24099;47.102;15.440;2023-10-09T12:10:52;5.40;;;1.10;;
3667;SDS011;24099;47.102;15.440;2023-10-09T12:13:21;1.17;;;1.00;;
3667;SDS011;24099;47.102;15.440;2023-10-09T12:15:50;3.58;;;1.05;;
3667;SDS011;24099;47.102;15.440;2023-10-09T12:18:19;3.30;;;1.20;;
3667;SDS011;24099;47.102;15.440;2023-10-09T12:20:49;2.88;;;1.13;;
3667;SDS011;24099;47.102;15.440;2023-10-09T12:23:17;1.25;;;0.88;;
3667;SDS011;24099;47.102;15.440;2023-10-09T12:25:44;1.98;;;1.00;;
3667;SDS011;24099;47.102;15.440;2023-10-09T12:28:12;6.25;;;1.20;;
3667;SDS011;24099;47.102;15.440;2023-10-09T12:30:40;3.75;;;1.02;;
3667;SDS011;24099;47.102;15.440;2023-10-09T12:33:09;2.60;;;0.98;;
3667;SDS011;24099;47.102;15.440;2023-10-09T12:35:38;3.88;;;1.25;;
3667;SDS011;24099;47.102;15.440;2023-10-09T12:38:05;1.23;;;1.00;;
3667;SDS011;24099;47.102;15.440;2023-10-09T12:40:35;6.95;;;0.95;;
3667;SDS011;24099;47.102;15.440;2023-10-09T12:43:04;1.33;;;0.90;;
3667;SDS011;24099;47.102;15.440;2023-10-09T12:45:40;3.88;;;1.15;;
3667;SDS011;24099;47.102;15.440;2023-10-09T12:48:09;1.75;;;0.98;;
3667;SDS011;24099;47.102;15.440;2023-10-09T12:50:37;2.33;;;0.73;;
3667;SDS011;24099;47.102;15.440;2023-10-09T12:53:09;1.75;;;0.82;;
3667;SDS011;24099;47.102;15.440;2023-10-09T12:55:38;4.13;;;0.90;;
3667;SDS011;24099;47.102;15.440;2023-10-09T12:58:07;4.32;;;1.20;;
3667;SDS011;24099;47.102;15.440;2023-10-09T13:00:35;5.90;;;1.00;;
3667;SDS011;24099;47.102;15.440;2023-10-09T13:03:10;2.72;;;0.88;;
3667;SDS011;24099;47.102;15.440;2023-10-09T13:05:46;3.70;;;0.93;;
3667;SDS011;24099;47.102;15.440;2023-10-09T13:08:20;2.65;;;0.80;;
3667;SDS011;24099;47.102;15.440;2023-10-09T13:10:49;1.52;;;0.77;;
3667;SDS011;24099;47.102;15.440;2023-10-09T13:13:25;2.60;;;1.05;;
3667;SDS011;24099;47.102;15.440;2023-10-09T13:16:07;1.92;;;1.00;;
3667;SDS011;24099;47.102;15.440;2023-10-09T13:18:38;2.92;;;0.90;;
3667;SDS011;24099;47.102;15.440;2023-10-09T13:21:06;3.20;;;1.00;;
3667;SDS011;24099;47.102;15.440;2023-10-09T13:26:12;4.25;;;0.88;;
3667;SDS011;24099;47.102;15.440;2023-10-09T13:28:49;2.40;;;0.95;;
3667;SDS011;24099;47.102;15.440;2023-10-09T13:31:17;1.52;;;0.90;;
3667;SDS011;24099;47.102;15.440;2023-10-09T13:33:47;1.80;;;0.82;;
3667;SDS011;24099;47.102;15.440;2023-10-09T13:36:19;1.27;;;0.85;;
3667;SDS011;24099;47.102;15.440;2023-10-09T13:38:53;5.90;;;1.23;;
3667;SDS011;24099;47.102;15.440;2023-10-09T13:41:20;1.45;;;1.00;;
3667;SDS011;24099;47.102;15.440;2023-10-09T13:43:51;5.97;;;1.00;;
3667;SDS011;24099;47.102;15.440;2023-10-09T13:46:18;2.85;;;0.82;;
3667;SDS011;24099;47.102;15.440;2023-10-09T13:48:47;2.45;;;0.98;;
3667;SDS011;24099;47.102;15.440;2023-10-09T13:51:15;1.00;;;0.90;;
3667;SDS011;24099;47.102;15.440;2023-10-09T13:53:44;3.53;;;1.00;;
3667;SDS011;24099;47.102;15.440;2023-10-09T13:56:12;1.83;;;1.00;;
3667;SDS011;24099;47.102;15.440;2023-10-09T13:58:45;2.35;;;0.77;;
3667;SDS011;24099;47.102;15.440;2023-10-09T14:01:12;4.22;;;1.17;;
3667;SDS011;24099;47.102;15.440;2023-10-09T14:03:54;2.03;;;1.05;;
3667;SDS011;24099;47.102;15.440;2023-10-09T14:06:21;3.08;;;1.00;;
3667;SDS011;24099;47.102;15.440;2023-10-09T14:09:00;0.80;;;0.80;;
3667;SDS011;24099;47.102;15.440;2023-10-09T14:11:29;1.25;;;0.90;;
3667;SDS011;24099;47.102;15.440;2023-10-09T14:13:57;5.05;;;1.48;;
3667;SDS011;24099;47.102;15.440;2023-10-09T14:16:26;2.38;;;1.00;;
3667;SDS011;24099;47.102;15.440;2023-10-09T14:18:58;1.75;;;1.05;;
3667;SDS011;24099;47.102;15.440;2023-10-09T14:21:26;2.67;;;1.30;;
3667;SDS011;24099;47.102;15.440;2023-10-09T14:23:55;3.25;;;0.98;;
3667;SDS011;24099;47.102;15.440;2023-10-09T14:26:24;1.73;;;0.90;;
3667;SDS011;24099;47.102;15.440;2023-10-09T14:28:51;1.80;;;0.93;;
3667;SDS011;24099;47.102;15.440;2023-10-09T14:31:19;3.92;;;1.20;;
3667;SDS011;24099;47.102;15.440;2023-10-09T14:33:52;2.40;;;1.10;;
3667;SDS011;24099;47.102;15.440;2023-10-09T14:36:21;1.42;;;1.05;;
3667;SDS011;24099;47.102;15.440;2023-10-09T14:38:49;1.85;;;1.02;;
3667;SDS011;24099;47.102;15.440;2023-10-09T14:41:18;3.13;;;1.15;;
3667;SDS011;24099;47.102;15.440;2023-10-09T14:43:48;2.38;;;1.13;;
3667;SDS011;24099;47.102;15.440;2023-10-09T14:46:16;4.60;;;1.33;;
3667;SDS011;24099;47.102;15.440;2023-10-09T14:48:49;1.58;;;0.98;;
3667;SDS011;24099;47.102;15.440;2023-10-09T14:51:18;5.60;;;1.63;;
3667;SDS011;24099;47.102;15.440;2023-10-09T14:53:54;2.75;;;1.10;;
3667;SDS011;24099;47.102;15.440;2023-10-09T14:56:27;6.47;;;1.20;;
3667;SDS011;24099;47.102;15.440;2023-10-09T14:59:00;5.22;;;1.05;;
3667;SDS011;24099;47.102;15.440;2023-10-09T15:01:28;2.70;;;0.95;;
3667;SDS011;24099;47.102;15.440;2023-10-09T15:03:56;1.35;;;0.93;;
3667;SDS011;24099;47.102;15.440;2023-10-09T15:06:25;1.85;;;0.90;;
3667;SDS011;24099;47.102;15.440;2023-10-09T15:08:56;2.78;;;1.05;;
3667;SDS011;24099;47.102;15.440;2023-10-09T15:11:26;1.40;;;1.00;;
3667;SDS011;24099;47.102;15.440;2023-10-09T15:13:54;6.88;;;1.25;;
3667;SDS011;24099;47.102;15.440;2023-10-09T15:16:23;1.45;;;0.85;;
3667;SDS011;24099;47.102;15.440;2023-10-09T15:18:54;3.80;;;1.10;;
3667;SDS011;24099;47.102;15.440;2023-10-09T15:21:29;2.60;;;1.00;;
3667;SDS011;24099;47.102;15.440;2023-10-09T15:24:00;2.83;;;1.05;;
3667;SDS011;24099;47.102;15.440;2023-10-09T15:26:27;1.30;;;1.08;;
3667;SDS011;24099;47.102;15.440;2023-10-09T15:29:00;4.65;;;1.20;;
3667;SDS011;24099;47.102;15.440;2023-10-09T15:31:31;1.85;;;0.80;;
3667;SDS011;24099;47.102;15.440;2023-10-09T15:33:59;4.50;;;1.13;;
3667;SDS011;24099;47.102;15.440;2023-10-09T15:36:27;2.17;;;1.35;;
3667;SDS011;24099;47.102;15.440;2023-10-09T15:38:57;2.50;;;1.08;;
3667;SDS011;24099;47.102;15.440;2023-10-09T15:41:30;5.35;;;1.00;;
3667;SDS011;24099;47.102;15.440;2023-10-09T15:44:00;1.60;;;0.93;;